sensor_id;sensor_type;location;lat;lon;timestamp;pressure;altitude;pressure_sealevel;temperature;humidity
40171;BME280;37650;52.790;18.268;2023-01-23T00:00:14;102427.23;;;-0.08;100.00
40171;BME280;37650;52.790;18.268;2023-01-23T00:03:52;102428.00;;;-0.11;100.00
40171;BME280;37650;52.790;18.268;2023-01-23T00:07:14;102427.04;;;-0.09;100.00
40171;BME280;37650;52.790;18.268;2023-01-23T00:10:37;102436.94;;;-0.08;100.00
40171;BME280;37650;52.790;18.268;2023-01-23T00:13:59;102439.73;;;-0.02;100.00
40171;BME280;37650;52.790;18.268;2023-01-23T00:17:24;102443.61;;;-0.01;100.00
40171;BME280;37650;52.790;18.268;2023-01-23T00:20:46;102445.91;;;-0.03;100.00
40171;BME280;37650;52.790;18.268;2023-01-23T00:24:09;102448.38;;;-0.06;100.00
40171;BME280;37650;52.790;18.268;2023-01-23T00:27:32;102452.66;;;-0.07;100.00
40171;BME280;37650;52.790;18.268;2023-01-23T00:30:53;102455.19;;;-0.08;100.00
40171;BME280;37650;52.790;18.268;2023-01-23T00:34:21;102456.27;;;-0.08;100.00
40171;BME280;37650;52.790;18.268;2023-01-23T00:37:42;102458.80;;;-0.04;100.00
40171;BME280;37650;52.790;18.268;2023-01-23T00:41:05;102461.77;;;0.01;100.00
40171;BME280;37650;52.790;18.268;2023-01-23T00:44:27;102466.30;;;0.02;100.00
40171;BME280;37650;52.790;18.268;2023-01-23T00:47:48;102472.00;;;-0.02;100.00
40171;BME280;37650;52.790;18.268;2023-01-23T00:51:09;102474.63;;;-0.01;100.00
40171;BME280;37650;52.790;18.268;2023-01-23T00:54:31;102476.90;;;-0.01;100.00
40171;BME280;37650;52.790;18.268;2023-01-23T00:57:52;102483.78;;;0.04;100.00
40171;BME280;37650;52.790;18.268;2023-01-23T01:01:14;102489.58;;;0.02;100.00
40171;BME280;37650;52.790;18.268;2023-01-23T01:04:36;102486.27;;;0.01;100.00
40171;BME280;37650;52.790;18.268;2023-01-23T01:07:57;102481.98;;;0.02;100.00
40171;BME280;37650;52.790;18.268;2023-01-23T01:11:18;102482.05;;;-0.01;100.00
40171;BME280;37650;52.790;18.268;2023-01-23T01:14:40;102481.05;;;-0.01;100.00
40171;BME280;37650;52.790;18.268;2023-01-23T01:18:01;102482.98;;;0.01;100.00
40171;BME280;37650;52.790;18.268;2023-01-23T01:21:23;102486.06;;;0.05;100.00
40171;BME280;37650;52.790;18.268;2023-01-23T01:24:44;102485.31;;;0.08;100.00
40171;BME280;37650;52.790;18.268;2023-01-23T01:28:06;102480.54;;;0.04;100.00
40171;BME280;37650;52.790;18.268;2023-01-23T01:31:28;102483.20;;;0.02;100.00
40171;BME280;37650;52.790;18.268;2023-01-23T01:34:51;102484.90;;;-0.03;100.00
40171;BME280;37650;52.790;18.268;2023-01-23T01:38:12;102484.80;;;-0.10;100.00
40171;BME280;37650;52.790;18.268;2023-01-23T01:41:33;102483.98;;;-0.13;100.00
40171;BME280;37650;52.790;18.268;2023-01-23T01:44:57;102483.97;;;-0.14;100.00
40171;BME280;37650;52.790;18.268;2023-01-23T01:48:20;102488.80;;;-0.09;100.00
40171;BME280;37650;52.790;18.268;2023-01-23T01:52:00;102493.45;;;-0.09;100.00
40171;BME280;37650;52.790;18.268;2023-01-23T01:55:22;102491.46;;;-0.12;100.00
40171;BME280;37650;52.790;18.268;2023-01-23T01:58:46;102487.08;;;-0.13;100.00
40171;BME280;37650;52.790;18.268;2023-01-23T02:02:15;102490.22;;;-0.17;100.00
40171;BME280;37650;52.790;18.268;2023-01-23T02:05:42;102492.68;;;-0.16;100.00
40171;BME280;37650;52.790;18.268;2023-01-23T02:09:10;102494.17;;;-0.13;100.00
40171;BME280;37650;52.790;18.268;2023-01-23T02:12:35;102498.70;;;-0.12;100.00
40171;BME280;37650;52.790;18.268;2023-01-23T02:16:00;102504.33;;;-0.14;100.00
40171;BME280;37650;52.790;18.268;2023-01-23T02:26:38;102514.23;;;-0.16;100.00
40171;BME280;37650;52.790;18.268;2023-01-23T02:30:00;102513.63;;;-0.14;100.00
40171;BME280;37650;52.790;18.268;2023-01-23T02:36:46;102510.66;;;-0.10;100.00
40171;BME280;37650;52.790;18.268;2023-01-23T02:40:09;102508.73;;;-0.11;100.00
40171;BME280;37650;52.790;18.268;2023-01-23T02:43:32;102506.50;;;-0.15;100.00
40171;BME280;37650;52.790;18.268;2023-01-23T02:47:05;102505.75;;;-0.17;100.00
40171;BME280;37650;52.790;18.268;2023-01-23T02:50:33;102502.44;;;-0.17;100.00
40171;BME280;37650;52.790;18.268;2023-01-23T02:53:54;102507.86;;;-0.15;100.00
40171;BME280;37650;52.790;18.268;2023-01-23T02:57:15;102510.80;;;-0.15;100.00
40171;BME280;37650;52.790;18.268;2023-01-23T03:00:36;102514.05;;;-0.16;100.00
40171;BME280;37650;52.790;18.268;2023-01-23T03:03:57;102517.83;;;-0.17;100.00
40171;BME280;37650;52.790;18.268;2023-01-23T03:07:23;102514.79;;;-0.19;100.00
40171;BME280;37650;52.790;18.268;2023-01-23T03:10:44;102510.23;;;-0.17;100.00
40171;BME280;37650;52.790;18.268;2023-01-23T03:14:09;102511.04;;;-0.14;100.00
40171;BME280;37650;52.790;18.268;2023-01-23T03:17:30;102507.34;;;-0.12;100.00
40171;BME280;37650;52.790;18.268;2023-01-23T03:20:52;102508.21;;;-0.11;100.00
40171;BME280;37650;52.790;18.268;2023-01-23T03:24:14;102504.83;;;-0.14;100.00
40171;BME280;37650;52.790;18.268;2023-01-23T03:27:35;102502.96;;;-0.17;100.00
40171;BME280;37650;52.790;18.268;2023-01-23T03:30:58;102500.16;;;-0.18;100.00
40171;BME280;37650;52.790;18.268;2023-01-23T03:34:19;102499.55;;;-0.20;100.00
40171;BME280;37650;52.790;18.268;2023-01-23T03:37:42;102505.59;;;-0.20;100.00
40171;BME280;37650;52.790;18.268;2023-01-23T03:41:04;102515.35;;;-0.23;100.00
40171;BME280;37650;52.790;18.268;2023-01-23T03:44:45;102528.14;;;-0.22;100.00
40171;BME280;37650;52.790;18.268;2023-01-23T03:48:06;102528.67;;;-0.21;100.00
40171;BME280;37650;52.790;18.268;2023-01-23T03:51:28;102527.77;;;-0.23;100.00
40171;BME280;37650;52.790;18.268;2023-01-23T03:54:49;102523.74;;;-0.24;100.00
40171;BME280;37650;52.790;18.268;2023-01-23T03:58:11;102523.10;;;-0.23;100.00
40171;BME280;37650;52.790;18.268;2023-01-23T04:01:35;102520.41;;;-0.21;100.00
40171;BME280;37650;52.790;18.268;2023-01-23T04:04:57;102513.40;;;-0.19;100.00
40171;BME280;37650;52.790;18.268;2023-01-23T04:08:19;102512.84;;;-0.20;100.00
40171;BME280;37650;52.790;18.268;2023-01-23T04:11:43;102519.82;;;-0.23;100.00
40171;BME280;37650;52.790;18.268;2023-01-23T04:15:05;102527.79;;;-0.26;100.00
40171;BME280;37650;52.790;18.268;2023-01-23T04:18:26;102533.81;;;-0.26;100.00
40171;BME280;37650;52.790;18.268;2023-01-23T04:21:48;102536.79;;;-0.25;100.00
40171;BME280;37650;52.790;18.268;2023-01-23T04:25:09;102534.63;;;-0.23;100.00
40171;BME280;37650;52.790;18.268;2023-01-23T04:28:30;102527.86;;;-0.24;100.00
40171;BME280;37650;52.790;18.268;2023-01-23T04:31:51;102537.46;;;-0.25;100.00
40171;BME280;37650;52.790;18.268;2023-01-23T04:35:13;102547.71;;;-0.27;100.00
40171;BME280;37650;52.790;18.268;2023-01-23T04:38:35;102548.23;;;-0.32;100.00
40171;BME280;37650;52.790;18.268;2023-01-23T04:42:10;102558.92;;;-0.32;100.00
40171;BME280;37650;52.790;18.268;2023-01-23T04:45:52;102568.13;;;-0.30;100.00
40171;BME280;37650;52.790;18.268;2023-01-23T04:49:40;102569.36;;;-0.25;100.00
40171;BME280;37650;52.790;18.268;2023-01-23T04:53:04;102576.86;;;-0.24;100.00
40171;BME280;37650;52.790;18.268;2023-01-23T04:56:27;102582.95;;;-0.22;100.00
40171;BME280;37650;52.790;18.268;2023-01-23T04:59:49;102591.05;;;-0.23;100.00
40171;BME280;37650;52.790;18.268;2023-01-23T05:03:11;102595.05;;;-0.22;100.00
40171;BME280;37650;52.790;18.268;2023-01-23T05:06:36;102595.73;;;-0.22;100.00
40171;BME280;37650;52.790;18.268;2023-01-23T05:09:57;102592.98;;;-0.18;100.00
40171;BME280;37650;52.790;18.268;2023-01-23T05:13:18;102590.65;;;-0.16;100.00
40171;BME280;37650;52.790;18.268;2023-01-23T05:16:39;102595.59;;;-0.17;100.00
40171;BME280;37650;52.790;18.268;2023-01-23T05:20:26;102596.83;;;-0.21;100.00
40171;BME280;37650;52.790;18.268;2023-01-23T05:23:49;102603.77;;;-0.24;100.00
40171;BME280;37650;52.790;18.268;2023-01-23T05:27:11;102608.45;;;-0.24;100.00
40171;BME280;37650;52.790;18.268;2023-01-23T05:30:34;102608.84;;;-0.26;100.00
40171;BME280;37650;52.790;18.268;2023-01-23T05:34:08;102608.80;;;-0.23;100.00
40171;BME280;37650;52.790;18.268;2023-01-23T05:37:30;102613.20;;;-0.17;100.00
40171;BME280;37650;52.790;18.268;2023-01-23T05:40:54;102622.05;;;-0.16;100.00
40171;BME280;37650;52.790;18.268;2023-01-23T05:44:38;102627.72;;;-0.20;100.00
40171;BME280;37650;52.790;18.268;2023-01-23T05:48:04;102627.02;;;-0.24;100.00
40171;BME280;37650;52.790;18.268;2023-01-23T05:51:27;102628.14;;;-0.23;100.00
40171;BME280;37650;52.790;18.268;2023-01-23T05:54:52;102623.35;;;-0.21;100.00
40171;BME280;37650;52.790;18.268;2023-01-23T05:58:13;102625.36;;;-0.19;100.00
40171;BME280;37650;52.790;18.268;2023-01-23T06:01:55;102632.59;;;-0.15;100.00
40171;BME280;37650;52.790;18.268;2023-01-23T06:05:45;102636.08;;;-0.14;100.00
40171;BME280;37650;52.790;18.268;2023-01-23T06:09:11;102638.05;;;-0.17;100.00
40171;BME280;37650;52.790;18.268;2023-01-23T06:12:32;102638.02;;;-0.22;100.00
40171;BME280;37650;52.790;18.268;2023-01-23T06:15:54;102638.83;;;-0.23;100.00
40171;BME280;37650;52.790;18.268;2023-01-23T06:19:15;102643.54;;;-0.21;100.00
40171;BME280;37650;52.790;18.268;2023-01-23T06:22:36;102648.01;;;-0.22;100.00
40171;BME280;37650;52.790;18.268;2023-01-23T06:26:02;102656.54;;;-0.20;100.00
40171;BME280;37650;52.790;18.268;2023-01-23T06:29:24;102660.48;;;-0.17;100.00
40171;BME280;37650;52.790;18.268;2023-01-23T06:32:45;102660.68;;;-0.16;100.00
40171;BME280;37650;52.790;18.268;2023-01-23T06:36:09;102662.39;;;-0.20;100.00
40171;BME280;37650;52.790;18.268;2023-01-23T06:39:32;102667.52;;;-0.17;100.00
40171;BME280;37650;52.790;18.268;2023-01-23T06:42:54;102673.05;;;-0.17;100.00
40171;BME280;37650;52.790;18.268;2023-01-23T06:46:16;102671.61;;;-0.15;100.00
40171;BME280;37650;52.790;18.268;2023-01-23T06:49:38;102673.11;;;-0.16;100.00
40171;BME280;37650;52.790;18.268;2023-01-23T06:53:00;102673.42;;;-0.17;100.00
40171;BME280;37650;52.790;18.268;2023-01-23T06:56:21;102678.57;;;-0.17;100.00
40171;BME280;37650;52.790;18.268;2023-01-23T06:59:43;102683.54;;;-0.18;100.00
40171;BME280;37650;52.790;18.268;2023-01-23T07:03:05;102690.36;;;-0.16;100.00
40171;BME280;37650;52.790;18.268;2023-01-23T07:06:26;102692.48;;;-0.15;100.00
40171;BME280;37650;52.790;18.268;2023-01-23T07:09:50;102693.36;;;-0.10;100.00
40171;BME280;37650;52.790;18.268;2023-01-23T07:13:16;102697.16;;;-0.10;100.00
40171;BME280;37650;52.790;18.268;2023-01-23T07:16:37;102703.92;;;-0.14;100.00
40171;BME280;37650;52.790;18.268;2023-01-23T07:19:59;102709.60;;;-0.14;100.00
40171;BME280;37650;52.790;18.268;2023-01-23T07:23:21;102713.30;;;-0.12;100.00
40171;BME280;37650;52.790;18.268;2023-01-23T07:26:43;102715.75;;;-0.07;100.00
40171;BME280;37650;52.790;18.268;2023-01-23T07:30:05;102720.48;;;-0.06;100.00
40171;BME280;37650;52.790;18.268;2023-01-23T07:33:26;102716.58;;;-0.04;100.00
40171;BME280;37650;52.790;18.268;2023-01-23T07:36:48;102716.36;;;-0.05;100.00
40171;BME280;37650;52.790;18.268;2023-01-23T07:40:09;102715.08;;;-0.07;100.00
40171;BME280;37650;52.790;18.268;2023-01-23T07:43:31;102715.61;;;-0.07;100.00
40171;BME280;37650;52.790;18.268;2023-01-23T07:47:20;102714.19;;;-0.04;100.00
40171;BME280;37650;52.790;18.268;2023-01-23T07:50:42;102717.95;;;-0.01;100.00
40171;BME280;37650;52.790;18.268;2023-01-23T07:54:03;102721.43;;;-0.00;100.00
40171;BME280;37650;52.790;18.268;2023-01-23T07:57:24;102723.17;;;0.01;100.00
40171;BME280;37650;52.790;18.268;2023-01-23T08:00:45;102725.05;;;-0.00;100.00
40171;BME280;37650;52.790;18.268;2023-01-23T08:04:07;102729.90;;;0.01;100.00
40171;BME280;37650;52.790;18.268;2023-01-23T08:07:28;102731.63;;;0.04;100.00
40171;BME280;37650;52.790;18.268;2023-01-23T08:10:50;102729.60;;;0.14;100.00
40171;BME280;37650;52.790;18.268;2023-01-23T08:14:11;102731.70;;;0.14;100.00
40171;BME280;37650;52.790;18.268;2023-01-23T08:17:32;102736.82;;;0.13;100.00
40171;BME280;37650;52.790;18.268;2023-01-23T08:20:58;102743.69;;;0.13;100.00
40171;BME280;37650;52.790;18.268;2023-01-23T08:24:20;102746.17;;;0.10;100.00
40171;BME280;37650;52.790;18.268;2023-01-23T08:27:41;102750.52;;;0.14;100.00
40171;BME280;37650;52.790;18.268;2023-01-23T08:31:05;102750.02;;;0.14;100.00
40171;BME280;37650;52.790;18.268;2023-01-23T08:34:27;102750.96;;;0.17;100.00
40171;BME280;37650;52.790;18.268;2023-01-23T08:37:48;102746.29;;;0.17;100.00
40171;BME280;37650;52.790;18.268;2023-01-23T08:41:09;102749.19;;;0.15;100.00
40171;BME280;37650;52.790;18.268;2023-01-23T08:44:31;102752.29;;;0.15;100.00
40171;BME280;37650;52.790;18.268;2023-01-23T08:47:55;102754.45;;;0.14;100.00
40171;BME280;37650;52.790;18.268;2023-01-23T08:51:16;102758.98;;;0.11;100.00
40171;BME280;37650;52.790;18.268;2023-01-23T08:54:37;102763.56;;;0.13;100.00
40171;BME280;37650;52.790;18.268;2023-01-23T08:57:58;102763.89;;;0.16;100.00
40171;BME280;37650;52.790;18.268;2023-01-23T09:01:25;102758.71;;;0.16;100.00
40171;BME280;37650;52.790;18.268;2023-01-23T09:04:46;102759.09;;;0.17;100.00
40171;BME280;37650;52.790;18.268;2023-01-23T09:08:07;102761.50;;;0.13;100.00
40171;BME280;37650;52.790;18.268;2023-01-23T09:11:28;102767.09;;;0.14;100.00
40171;BME280;37650;52.790;18.268;2023-01-23T09:14:50;102769.84;;;0.18;100.00
40171;BME280;37650;52.790;18.268;2023-01-23T09:18:11;102776.73;;;0.22;100.00
40171;BME280;37650;52.790;18.268;2023-01-23T09:21:32;102772.63;;;0.26;100.00
40171;BME280;37650;52.790;18.268;2023-01-23T09:24:54;102779.06;;;0.28;100.00
40171;BME280;37650;52.790;18.268;2023-01-23T09:28:15;102779.23;;;0.28;100.00
40171;BME280;37650;52.790;18.268;2023-01-23T09:31:37;102780.06;;;0.31;100.00
40171;BME280;37650;52.790;18.268;2023-01-23T09:34:58;102773.79;;;0.34;100.00
40171;BME280;37650;52.790;18.268;2023-01-23T09:38:20;102775.02;;;0.38;100.00
40171;BME280;37650;52.790;18.268;2023-01-23T09:41:43;102772.51;;;0.40;100.00
40171;BME280;37650;52.790;18.268;2023-01-23T09:45:06;102767.56;;;0.46;100.00
40171;BME280;37650;52.790;18.268;2023-01-23T09:52:10;102769.48;;;0.58;100.00
40171;BME280;37650;52.790;18.268;2023-01-23T09:55:41;102770.55;;;0.55;100.00
40171;BME280;37650;52.790;18.268;2023-01-23T10:02:31;102771.91;;;0.63;100.00
40171;BME280;37650;52.790;18.268;2023-01-23T10:06:14;102774.32;;;0.67;100.00
40171;BME280;37650;52.790;18.268;2023-01-23T10:09:43;102777.00;;;0.77;100.00
40171;BME280;37650;52.790;18.268;2023-01-23T10:13:17;102773.23;;;0.78;100.00
40171;BME280;37650;52.790;18.268;2023-01-23T10:20:40;102771.55;;;0.79;100.00
40171;BME280;37650;52.790;18.268;2023-01-23T10:27:45;102773.00;;;0.89;100.00
40171;BME280;37650;52.790;18.268;2023-01-23T10:31:15;102776.56;;;0.96;100.00
40171;BME280;37650;52.790;18.268;2023-01-23T10:38:13;102773.36;;;0.98;100.00
40171;BME280;37650;52.790;18.268;2023-01-23T10:41:37;102776.75;;;1.05;100.00
40171;BME280;37650;52.790;18.268;2023-01-23T10:44:59;102777.14;;;1.10;100.00
40171;BME280;37650;52.790;18.268;2023-01-23T10:48:46;102775.05;;;1.14;100.00
40171;BME280;37650;52.790;18.268;2023-01-23T10:52:30;102776.60;;;1.10;100.00
40171;BME280;37650;52.790;18.268;2023-01-23T10:55:57;102774.94;;;1.03;100.00
40171;BME280;37650;52.790;18.268;2023-01-23T10:59:38;102775.47;;;1.08;100.00
40171;BME280;37650;52.790;18.268;2023-01-23T11:06:41;102766.83;;;1.20;100.00
40171;BME280;37650;52.790;18.268;2023-01-23T11:13:29;102764.85;;;1.28;100.00
40171;BME280;37650;52.790;18.268;2023-01-23T11:17:10;102765.30;;;1.31;100.00
40171;BME280;37650;52.790;18.268;2023-01-23T11:20:39;102771.86;;;1.35;100.00
40171;BME280;37650;52.790;18.268;2023-01-23T11:24:20;102774.15;;;1.36;100.00
40171;BME280;37650;52.790;18.268;2023-01-23T11:27:55;102771.25;;;1.37;100.00
40171;BME280;37650;52.790;18.268;2023-01-23T11:31:22;102767.59;;;1.41;100.00
40171;BME280;37650;52.790;18.268;2023-01-23T11:34:50;102766.84;;;1.34;100.00
40171;BME280;37650;52.790;18.268;2023-01-23T11:38:16;102767.15;;;1.34;100.00
40171;BME280;37650;52.790;18.268;2023-01-23T11:41:38;102771.45;;;1.33;100.00
40171;BME280;37650;52.790;18.268;2023-01-23T11:45:00;102769.13;;;1.36;100.00
40171;BME280;37650;52.790;18.268;2023-01-23T11:48:31;102771.48;;;1.43;100.00
40171;BME280;37650;52.790;18.268;2023-01-23T11:52:22;102771.64;;;1.47;100.00
40171;BME280;37650;52.790;18.268;2023-01-23T11:56:12;102775.13;;;1.47;100.00
40171;BME280;37650;52.790;18.268;2023-01-23T12:07:20;102768.22;;;1.43;100.00
40171;BME280;37650;52.790;18.268;2023-01-23T12:10:52;102767.09;;;1.45;100.00
40171;BME280;37650;52.790;18.268;2023-01-23T12:25:35;102765.74;;;1.56;100.00
40171;BME280;37650;52.790;18.268;2023-01-23T12:46:54;102768.25;;;1.49;100.00
40171;BME280;37650;52.790;18.268;2023-01-23T12:50:25;102769.11;;;1.48;100.00
40171;BME280;37650;52.790;18.268;2023-01-23T12:53:52;102764.07;;;1.48;100.00
40171;BME280;37650;52.790;18.268;2023-01-23T12:57:18;102764.45;;;1.49;100.00
40171;BME280;37650;52.790;18.268;2023-01-23T13:05:17;102764.73;;;1.47;100.00
40171;BME280;37650;52.790;18.268;2023-01-23T13:12:24;102766.77;;;1.42;100.00
40171;BME280;37650;52.790;18.268;2023-01-23T13:16:12;102766.62;;;1.42;100.00
40171;BME280;37650;52.790;18.268;2023-01-23T13:19:40;102772.72;;;1.43;100.00
40171;BME280;37650;52.790;18.268;2023-01-23T13:23:27;102775.66;;;1.44;100.00
40171;BME280;37650;52.790;18.268;2023-01-23T13:26:49;102774.86;;;1.41;100.00
40171;BME280;37650;52.790;18.268;2023-01-23T13:33:48;102769.30;;;1.40;100.00
40171;BME280;37650;52.790;18.268;2023-01-23T13:44:28;102771.54;;;1.44;100.00
40171;BME280;37650;52.790;18.268;2023-01-23T13:48:27;102770.33;;;1.40;100.00
40171;BME280;37650;52.790;18.268;2023-01-23T13:52:13;102769.33;;;1.32;100.00
40171;BME280;37650;52.790;18.268;2023-01-23T13:55:54;102762.20;;;1.26;100.00
40171;BME280;37650;52.790;18.268;2023-01-23T13:59:45;102757.20;;;1.21;100.00
40171;BME280;37650;52.790;18.268;2023-01-23T14:07:28;102751.63;;;1.21;100.00
40171;BME280;37650;52.790;18.268;2023-01-23T14:11:15;102758.48;;;1.11;100.00
40171;BME280;37650;52.790;18.268;2023-01-23T14:14:37;102755.17;;;1.01;100.00
40171;BME280;37650;52.790;18.268;2023-01-23T14:21:52;102761.55;;;0.97;100.00
40171;BME280;37650;52.790;18.268;2023-01-23T14:25:17;102765.50;;;0.96;100.00
40171;BME280;37650;52.790;18.268;2023-01-23T14:28:39;102768.27;;;0.96;100.00
40171;BME280;37650;52.790;18.268;2023-01-23T14:32:00;102769.90;;;0.94;100.00
40171;BME280;37650;52.790;18.268;2023-01-23T14:35:26;102774.83;;;0.87;100.00
40171;BME280;37650;52.790;18.268;2023-01-23T14:38:48;102775.57;;;0.84;100.00
40171;BME280;37650;52.790;18.268;2023-01-23T14:42:27;102778.92;;;0.82;100.00
40171;BME280;37650;52.790;18.268;2023-01-23T14:46:16;102778.23;;;0.78;100.00
40171;BME280;37650;52.790;18.268;2023-01-23T14:49:39;102780.85;;;0.74;100.00
40171;BME280;37650;52.790;18.268;2023-01-23T14:53:03;102786.30;;;0.72;100.00
40171;BME280;37650;52.790;18.268;2023-01-23T14:56:30;102790.00;;;0.70;100.00
40171;BME280;37650;52.790;18.268;2023-01-23T14:59:56;102787.70;;;0.64;100.00
40171;BME280;37650;52.790;18.268;2023-01-23T15:03:43;102786.98;;;0.64;100.00
40171;BME280;37650;52.790;18.268;2023-01-23T15:07:04;102785.77;;;0.59;100.00
40171;BME280;37650;52.790;18.268;2023-01-23T15:10:31;102782.99;;;0.51;100.00
40171;BME280;37650;52.790;18.268;2023-01-23T15:13:54;102786.74;;;0.46;100.00
40171;BME280;37650;52.790;18.268;2023-01-23T15:17:21;102789.86;;;0.42;100.00
40171;BME280;37650;52.790;18.268;2023-01-23T15:20:51;102794.66;;;0.41;100.00
40171;BME280;37650;52.790;18.268;2023-01-23T15:27:35;102805.90;;;0.42;100.00
40171;BME280;37650;52.790;18.268;2023-01-23T15:30:56;102813.48;;;0.41;100.00
40171;BME280;37650;52.790;18.268;2023-01-23T15:34:27;102817.14;;;0.38;100.00
40171;BME280;37650;52.790;18.268;2023-01-23T15:37:50;102815.64;;;0.35;100.00
40171;BME280;37650;52.790;18.268;2023-01-23T15:41:19;102817.11;;;0.33;100.00
40171;BME280;37650;52.790;18.268;2023-01-23T15:44:41;102818.19;;;0.34;100.00
40171;BME280;37650;52.790;18.268;2023-01-23T15:48:02;102817.63;;;0.37;100.00
40171;BME280;37650;52.790;18.268;2023-01-23T15:51:24;102818.98;;;0.37;100.00
40171;BME280;37650;52.790;18.268;2023-01-23T15:54:45;102819.22;;;0.34;100.00
40171;BME280;37650;52.790;18.268;2023-01-23T15:58:13;102819.75;;;0.34;100.00
40171;BME280;37650;52.790;18.268;2023-01-23T16:01:34;102821.21;;;0.32;100.00
40171;BME280;37650;52.790;18.268;2023-01-23T16:04:55;102821.79;;;0.33;100.00
40171;BME280;37650;52.790;18.268;2023-01-23T16:08:19;102829.19;;;0.37;100.00
40171;BME280;37650;52.790;18.268;2023-01-23T16:11:42;102830.95;;;0.42;100.00
40171;BME280;37650;52.790;18.268;2023-01-23T16:15:13;102832.98;;;0.40;100.00
40171;BME280;37650;52.790;18.268;2023-01-23T16:18:34;102835.14;;;0.39;100.00
40171;BME280;37650;52.790;18.268;2023-01-23T16:21:55;102843.54;;;0.33;100.00
40171;BME280;37650;52.790;18.268;2023-01-23T16:25:28;102849.19;;;0.36;100.00
40171;BME280;37650;52.790;18.268;2023-01-23T16:28:49;102848.63;;;0.39;100.00
40171;BME280;37650;52.790;18.268;2023-01-23T16:32:11;102848.60;;;0.39;100.00
40171;BME280;37650;52.790;18.268;2023-01-23T16:35:32;102844.67;;;0.36;100.00
40171;BME280;37650;52.790;18.268;2023-01-23T16:38:54;102844.38;;;0.33;100.00
40171;BME280;37650;52.790;18.268;2023-01-23T16:42:21;102845.93;;;0.29;100.00
40171;BME280;37650;52.790;18.268;2023-01-23T16:45:42;102846.19;;;0.27;100.00
40171;BME280;37650;52.790;18.268;2023-01-23T16:49:04;102842.00;;;0.26;100.00
40171;BME280;37650;52.790;18.268;2023-01-23T16:52:25;102837.54;;;0.27;100.00
40171;BME280;37650;52.790;18.268;2023-01-23T16:55:46;102840.16;;;0.27;100.00
40171;BME280;37650;52.790;18.268;2023-01-23T16:59:15;102843.48;;;0.24;100.00
40171;BME280;37650;52.790;18.268;2023-01-23T17:02:37;102839.19;;;0.21;100.00
40171;BME280;37650;52.790;18.268;2023-01-23T17:05:59;102842.56;;;0.19;100.00
40171;BME280;37650;52.790;18.268;2023-01-23T17:09:22;102843.69;;;0.22;100.00
40171;BME280;37650;52.790;18.268;2023-01-23T17:12:43;102844.39;;;0.22;100.00
40171;BME280;37650;52.790;18.268;2023-01-23T17:16:06;102844.80;;;0.23;100.00
40171;BME280;37650;52.790;18.268;2023-01-23T17:19:31;102847.53;;;0.26;100.00
40171;BME280;37650;52.790;18.268;2023-01-23T17:22:54;102841.45;;;0.25;100.00
40171;BME280;37650;52.790;18.268;2023-01-23T17:26:18;102846.17;;;0.19;100.00
40171;BME280;37650;52.790;18.268;2023-01-23T17:29:41;102849.92;;;0.18;100.00
40171;BME280;37650;52.790;18.268;2023-01-23T17:33:03;102854.27;;;0.19;100.00
40171;BME280;37650;52.790;18.268;2023-01-23T17:36:24;102858.11;;;0.19;100.00
40171;BME280;37650;52.790;18.268;2023-01-23T17:39:46;102861.78;;;0.21;100.00
40171;BME280;37650;52.790;18.268;2023-01-23T17:43:11;102862.41;;;0.19;100.00
40171;BME280;37650;52.790;18.268;2023-01-23T17:46:34;102862.14;;;0.17;100.00
40171;BME280;37650;52.790;18.268;2023-01-23T17:50:00;102866.80;;;0.13;100.00
40171;BME280;37650;52.790;18.268;2023-01-23T17:53:24;102869.33;;;0.12;100.00
40171;BME280;37650;52.790;18.268;2023-01-23T17:56:48;102868.73;;;0.14;100.00
40171;BME280;37650;52.790;18.268;2023-01-23T18:00:17;102870.52;;;0.19;100.00
40171;BME280;37650;52.790;18.268;2023-01-23T18:03:40;102867.22;;;0.19;100.00
40171;BME280;37650;52.790;18.268;2023-01-23T18:07:01;102872.86;;;0.17;100.00
40171;BME280;37650;52.790;18.268;2023-01-23T18:10:23;102872.55;;;0.15;100.00
40171;BME280;37650;52.790;18.268;2023-01-23T18:17:35;102864.22;;;0.14;100.00
40171;BME280;37650;52.790;18.268;2023-01-23T18:21:00;102864.02;;;0.17;100.00
40171;BME280;37650;52.790;18.268;2023-01-23T18:27:54;102864.16;;;0.20;100.00
40171;BME280;37650;52.790;18.268;2023-01-23T18:31:29;102864.28;;;0.19;100.00
40171;BME280;37650;52.790;18.268;2023-01-23T18:39:21;102863.16;;;0.13;100.00
40171;BME280;37650;52.790;18.268;2023-01-23T18:46:20;102870.23;;;0.17;100.00
40171;BME280;37650;52.790;18.268;2023-01-23T18:49:45;102874.52;;;0.16;100.00
40171;BME280;37650;52.790;18.268;2023-01-23T18:53:31;102871.02;;;0.15;100.00
40171;BME280;37650;52.790;18.268;2023-01-23T19:04:14;102872.03;;;0.10;100.00
40171;BME280;37650;52.790;18.268;2023-01-23T19:07:38;102867.73;;;0.11;100.00
40171;BME280;37650;52.790;18.268;2023-01-23T19:11:17;102867.46;;;0.13;100.00
40171;BME280;37650;52.790;18.268;2023-01-23T19:15:10;102871.96;;;0.13;100.00
40171;BME280;37650;52.790;18.268;2023-01-23T19:18:47;102872.91;;;0.11;100.00
40171;BME280;37650;52.790;18.268;2023-01-23T19:22:16;102877.97;;;0.12;100.00
40171;BME280;37650;52.790;18.268;2023-01-23T19:25:39;102882.05;;;0.11;100.00
40171;BME280;37650;52.790;18.268;2023-01-23T19:29:03;102884.55;;;0.13;100.00
40171;BME280;37650;52.790;18.268;2023-01-23T19:32:26;102880.40;;;0.13;100.00
40171;BME280;37650;52.790;18.268;2023-01-23T19:35:48;102880.61;;;0.13;100.00
40171;BME280;37650;52.790;18.268;2023-01-23T19:39:12;102882.23;;;0.12;100.00